Grand Rapids, MI (49548)

11:16 PM EDT on April 27, 2017 (GMT -0400)
Cutlerville | | Change Station

Elev 679 ft 42.84 °N, 85.66 °W | Updated 7 seconds ago

Overcast
Overcast
45.2 °F
Feels Like 43 °F
N
5.0
Wind Variable Wind from West
Gusts 18.0 mph

Today
High -- | Low -- °F
--% Chance of Precip.
Yesterday
High -- | Low -- °F
Precip. -- in
Pressure 29.79 in
Visibility 10.0 miles
Clouds Mostly Cloudy 2000 ft
Overcast 2500 ft
Windchill 43 °F
Dew Point 39 °F
Humidity 80%
Rainfall 0.11 in
Snow Depth Not available.
6:42 AM 8:39 PM
Waxing Crescent, 4% visible
METAR KGRR 280253Z 24017G22KT 10SM BKN020 OVC025 07/04 A2979 RMK AO2 SLP087 60000 T00720039 53024
Pressure 29.79 in
Visibility 10.0 miles
Clouds Mostly Cloudy 2000 ft
Overcast 2500 ft
Windchill 43 °F
Dew Point 39 °F
Humidity 80%
Rainfall 0.11 in
Snow Depth Not available.
6:42 AM 8:39 PM
Waxing Crescent, 4% visible
METAR KGRR 280253Z 24017G22KT 10SM BKN020 OVC025 07/04 A2979 RMK AO2 SLP087 60000 T00720039 53024

Get Severe Weather Alerts

Thanks for signing up!

Be on the lookout for a verification email in your inbox.

You'll start receiving the daily forecast at 8 AM.

×

10-Day Weather Forecast

Almanac

Astronomy

Apr. 27, 2017 Rise Set
Actual Time
Civil Twilight
Nautical Twilight
Astronomical Twilight
Moon
Length of Visible Light
Length of Day
Tomorrow will be .
, % of the Moon is Illuminated

Today's Extremes

State Highs State Lows

Community

WunderPhotos

WunderBlog® & News

Nearby

Air Quality

  Air Quality AQ Index Pollutant
Not available.

Snow Depth

Station Depth Elevation

Earthquake Activity

City Distance Mag. Time & Date
Minimum magnitude displayed is 2.5.

Coastal Water Temperatures

Place Temperature

Stations

Nearby Weather Stations

Station Location Temp. Windchill Dew Point Humidity Wind Precip. Elev Updated Type
                   

Watches & Warnings

There are currently no watches in effect.